Time;durP1;ratioP1;P1;durP2;ratioP2;P2;SDS_P1;SDS_P2;PMS_P1;PMS_P2;Temp;Humidity;BMP_temperature;BMP_pressure;BME280_temperature;BME280_humidity;BME280_pressure;Samples;Min_cycle;Max_cycle;Signal;HPM_P1;HPM_P2
2021/04/11 00:02:03;;;;;;;31.95;20.80;;;10.00;94.10;;;;;;4889488;29;20187;-89
2021/04/11 00:04:28;;;;;;;29.83;21.50;;;10.00;94.10;;;;;;4888396;29;20040;-91
2021/04/11 00:06:54;;;;;;;30.23;21.02;;;10.00;94.20;;;;;;4888550;29;20080;-91
2021/04/11 00:09:19;;;;;;;29.83;20.98;;;10.00;94.20;;;;;;4888221;29;20096;-91
2021/04/11 00:11:45;;;;;;;27.38;20.25;;;10.00;94.20;;;;;;4888720;29;20052;-90
2021/04/11 00:14:11;;;;;;;27.48;20.70;;;10.00;94.20;;;;;;4888358;29;20044;-90
2021/04/11 00:16:36;;;;;;;32.55;21.02;;;10.00;94.20;;;;;;4888288;29;20052;-90
2021/04/11 00:19:02;;;;;;;30.08;20.45;;;10.00;94.20;;;;;;4888337;29;20044;-91
2021/04/11 00:21:27;;;;;;;27.33;20.17;;;10.00;94.30;;;;;;4888368;29;20080;-91
2021/04/11 00:23:53;;;;;;;28.77;21.42;;;10.00;94.20;;;;;;4888442;29;20045;-91
2021/04/11 00:26:18;;;;;;;31.25;20.30;;;10.00;94.20;;;;;;4888174;29;20127;-91
2021/04/11 00:28:44;;;;;;;28.00;20.13;;;10.00;94.20;;;;;;4890973;29;20112;-90
2021/04/11 00:31:10;;;;;;;27.15;19.65;;;10.00;94.20;;;;;;4887898;29;20131;-91
2021/04/11 00:33:38;;;;;;;24.77;18.90;;;10.00;94.10;;;;;;4888490;29;20071;-91
2021/04/11 00:36:11;;;;;;;27.40;18.63;;;10.00;94.00;;;;;;4887803;29;20418;-91
2021/04/11 00:38:37;;;;;;;30.30;20.08;;;10.00;94.00;;;;;;4888106;29;20037;-92
2021/04/11 00:41:25;;;;;;;25.83;19.33;;;10.00;93.90;;;;;;4887700;29;20047;-91
2021/04/11 00:43:51;;;;;;;30.65;20.15;;;10.00;93.80;;;;;;4903572;29;20037;-90
2021/04/11 00:46:32;;;;;;;27.52;19.15;;;10.10;93.80;;;;;;4887895;29;20032;-89
2021/04/11 00:48:59;;;;;;;26.25;19.80;;;10.10;93.80;;;;;;4887513;29;20040;-91
2021/04/11 00:51:28;;;;;;;26.20;18.73;;;10.00;93.70;;;;;;4887574;29;20052;-91
2021/04/11 00:54:03;;;;;;;23.65;17.85;;;10.00;93.70;;;;;;4887571;29;20041;-91
2021/04/11 00:56:32;;;;;;;24.98;18.13;;;10.00;93.70;;;;;;4903830;29;20119;-90
2021/04/11 00:58:57;;;;;;;26.80;18.13;;;10.00;93.60;;;;;;4888131;29;20044;-91
2021/04/11 01:01:23;;;;;;;26.88;19.15;;;10.00;93.60;;;;;;4903283;29;20090;-91
2021/04/11 01:03:51;;;;;;;27.33;18.60;;;10.00;93.60;;;;;;4887986;29;20036;-90
2021/04/11 01:06:22;;;;;;;23.75;18.92;;;10.10;93.50;;;;;;4886895;29;20115;-91
2021/04/11 01:08:51;;;;;;;29.42;18.80;;;10.10;93.50;;;;;;4887757;29;20051;-91
2021/04/11 01:11:19;;;;;;;26.35;17.90;;;10.10;93.40;;;;;;4887180;29;20096;-90
2021/04/11 01:13:49;;;;;;;27.00;18.23;;;10.10;93.50;;;;;;4887193;29;20290;-90
2021/04/11 01:16:16;;;;;;;32.03;18.58;;;10.10;93.50;;;;;;4887212;29;20041;-91
2021/04/11 01:18:42;;;;;;;28.33;18.85;;;10.10;93.40;;;;;;4887278;29;20051;-90
2021/04/11 01:21:20;;;;;;;28.95;18.95;;;10.10;93.40;;;;;;4906652;29;20048;-91
2021/04/11 01:23:50;;;;;;;22.67;17.65;;;10.10;93.40;;;;;;4888201;29;20310;-90
2021/04/11 01:26:17;;;;;;;26.65;17.92;;;10.20;93.30;;;;;;4902861;29;20036;-90
2021/04/11 01:28:45;;;;;;;25.65;19.00;;;10.20;93.20;;;;;;4887144;29;20383;-90
2021/04/11 01:31:12;;;;;;;25.83;18.13;;;10.20;93.10;;;;;;4886982;29;20399;-91
2021/04/11 01:33:43;;;;;;;23.30;16.63;;;10.10;93.20;;;;;;4903196;29;20107;-91
2021/04/11 01:36:13;;;;;;;29.05;17.70;;;10.20;93.20;;;;;;4887117;29;20124;-92
2021/04/11 01:38:41;;;;;;;29.17;19.27;;;10.20;93.20;;;;;;4887059;29;20079;-91
2021/04/11 01:41:34;;;;;;;24.50;17.92;;;10.20;93.20;;;;;;4887267;29;20068;-92
2021/04/11 01:44:02;;;;;;;28.00;18.98;;;10.20;93.10;;;;;;4886975;29;20134;-91
2021/04/11 01:46:27;;;;;;;23.30;18.00;;;10.20;93.00;;;;;;4903016;29;20119;-91
2021/04/11 01:48:54;;;;;;;27.08;18.75;;;10.20;93.10;;;;;;4903185;29;20333;-91
2021/04/11 01:51:24;;;;;;;23.13;18.42;;;10.10;93.20;;;;;;4886932;29;20044;-93
2021/04/11 01:53:51;;;;;;;24.05;17.90;;;10.10;93.30;;;;;;4887287;29;20068;-91
2021/04/11 01:56:18;;;;;;;28.65;19.02;;;10.00;93.30;;;;;;4887238;29;20036;-91
2021/04/11 01:58:44;;;;;;;25.77;19.45;;;10.10;93.30;;;;;;4887361;29;20376;-92
2021/04/11 02:01:30;;;;;;;26.50;18.73;;;10.10;93.30;;;;;;4891060;29;20379;-91
2021/04/11 02:03:57;;;;;;;28.40;19.08;;;10.10;93.30;;;;;;4890774;29;20040;-92
2021/04/11 02:06:24;;;;;;;26.85;19.58;;;10.10;93.30;;;;;;4890726;29;20143;-92
2021/04/11 02:08:55;;;;;;;27.80;19.02;;;10.10;93.30;;;;;;4890799;29;20048;-92
2021/04/11 02:11:22;;;;;;;25.67;17.85;;;10.10;93.30;;;;;;4892486;29;20037;-91
2021/04/11 02:13:48;;;;;;;28.13;19.63;;;10.10;93.20;;;;;;4891425;29;20283;-92
2021/04/11 02:16:16;;;;;;;32.92;18.55;;;10.10;93.20;;;;;;4890509;29;20135;-91
2021/04/11 02:18:42;;;;;;;25.50;19.10;;;10.10;93.20;;;;;;4891632;29;20104;-91
2021/04/11 02:21:14;;;;;;;26.50;18.13;;;10.10;93.20;;;;;;4891101;29;20096;-92
2021/04/11 02:23:40;;;;;;;27.83;19.88;;;10.10;93.10;;;;;;4890305;29;20301;-92
2021/04/11 02:26:10;;;;;;;29.35;17.45;;;10.10;93.00;;;;;;4890059;29;20116;-91
2021/04/11 02:28:36;;;;;;;24.38;17.25;;;10.20;93.00;;;;;;4889989;29;20064;-91
2021/04/11 02:31:17;;;;;;;26.88;18.02;;;10.20;92.90;;;;;;4890181;29;20438;-91
2021/04/11 02:33:57;;;;;;;25.30;18.45;;;10.20;93.00;;;;;;4889802;29;20044;-91
2021/04/11 02:36:27;;;;;;;25.08;17.00;;;10.20;93.00;;;;;;4890076;29;20036;-92
2021/04/11 02:38:55;;;;;;;21.25;15.75;;;10.20;93.00;;;;;;4890195;29;20128;-91
2021/04/11 02:41:24;;;;;;;24.20;17.88;;;10.20;93.10;;;;;;4889735;29;20044;-92
2021/04/11 02:43:49;;;;;;;24.65;17.13;;;10.20;93.10;;;;;;4890787;29;20132;-90
2021/04/11 02:46:15;;;;;;;24.60;16.13;;;10.20;93.10;;;;;;4891451;29;20363;-90
2021/04/11 02:48:41;;;;;;;25.63;16.33;;;10.20;93.00;;;;;;4889683;29;20096;-91
2021/04/11 02:51:08;;;;;;;24.17;17.13;;;10.30;93.00;;;;;;4889817;29;20044;-92
2021/04/11 02:53:36;;;;;;;24.88;15.73;;;10.30;92.80;;;;;;4889729;29;20036;-92
2021/04/11 02:56:02;;;;;;;22.38;16.00;;;10.30;92.90;;;;;;4889530;29;20044;-92
2021/04/11 02:58:29;;;;;;;21.05;14.80;;;10.30;92.80;;;;;;4889532;29;20036;-90
2021/04/11 03:00:57;;;;;;;22.80;16.17;;;10.40;92.90;;;;;;4889286;29;20040;-91
2021/04/11 03:03:23;;;;;;;22.95;15.77;;;10.40;92.80;;;;;;4905826;29;20037;-92
2021/04/11 03:05:49;;;;;;;19.38;15.32;;;10.40;92.70;;;;;;4892015;29;20060;-92
2021/04/11 03:08:20;;;;;;;21.30;14.75;;;10.40;92.80;;;;;;4891231;29;20475;-93
2021/04/11 03:11:11;;;;;;;18.73;14.93;;;10.40;92.60;;;;;;4888472;29;20319;-91
2021/04/11 03:13:39;;;;;;;18.38;13.98;;;10.40;92.60;;;;;;4905360;29;20059;-92
2021/04/11 03:16:04;;;;;;;17.52;13.88;;;10.40;92.60;;;;;;4889126;29;20041;-93
2021/04/11 03:18:30;;;;;;;18.98;13.90;;;10.40;92.50;;;;;;4889234;29;20040;-93
2021/04/11 03:20:57;;;;;;;19.10;12.93;;;10.40;92.50;;;;;;4889391;29;20080;-93
2021/04/11 03:23:23;;;;;;;22.33;13.15;;;10.40;92.60;;;;;;4889011;29;20048;-92
2021/04/11 03:25:56;;;;;;;23.25;13.20;;;10.40;92.50;;;;;;4889433;29;20055;-92
2021/04/11 03:28:27;;;;;;;23.50;11.98;;;10.40;92.50;;;;;;4889158;29;20040;-93
2021/04/11 03:31:14;;;;;;;20.85;12.95;;;10.40;92.60;;;;;;4889284;29;20044;-94
2021/04/11 03:33:44;;;;;;;17.52;11.88;;;10.50;92.60;;;;;;4888950;29;20132;-92
2021/04/11 03:36:14;;;;;;;17.55;13.80;;;10.40;92.60;;;;;;4889288;29;20418;-93
2021/04/11 03:38:40;;;;;;;26.02;13.85;;;10.50;92.60;;;;;;4888721;29;20525;-93
2021/04/11 03:41:07;;;;;;;17.20;13.57;;;10.50;92.60;;;;;;4889332;29;20037;-93
2021/04/11 03:43:40;;;;;;;18.02;12.43;;;10.50;92.40;;;;;;4888859;29;20036;-93
2021/04/11 03:46:25;;;;;;;20.13;12.80;;;10.50;92.50;;;;;;4889041;29;20047;-91
2021/04/11 03:48:59;;;;;;;18.60;13.70;;;10.50;92.50;;;;;;4889005;29;20273;-93
2021/04/11 03:51:27;;;;;;;21.17;13.90;;;10.50;92.40;;;;;;4904114;29;20048;-93
2021/04/11 03:54:00;;;;;;;17.42;12.90;;;10.50;92.50;;;;;;4888892;29;20040;-91
2021/04/11 03:56:30;;;;;;;18.05;13.73;;;10.50;92.30;;;;;;4891442;29;20092;-91
2021/04/11 03:59:01;;;;;;;18.15;13.80;;;10.50;92.40;;;;;;4888908;29;20040;-91
2021/04/11 04:01:31;;;;;;;24.05;13.38;;;10.50;92.30;;;;;;4888770;29;20123;-92
2021/04/11 04:04:01;;;;;;;19.83;12.63;;;10.50;92.20;;;;;;4888675;29;20044;-91
2021/04/11 04:06:32;;;;;;;17.27;12.70;;;10.60;92.20;;;;;;4888088;29;20044;-92
2021/04/11 04:08:58;;;;;;;16.90;12.75;;;10.50;92.20;;;;;;4888523;29;20318;-92
2021/04/11 04:11:57;;;;;;;18.55;12.80;;;10.60;92.10;;;;;;4888409;29;20048;-90
2021/04/11 04:14:23;;;;;;;17.85;13.60;;;10.60;92.10;;;;;;4888830;29;20048;-91
2021/04/11 04:17:10;;;;;;;18.27;13.45;;;10.60;92.00;;;;;;4904044;29;20040;-91
2021/04/11 04:19:55;;;;;;;16.70;12.25;;;10.60;92.00;;;;;;4888481;29;20414;-91
2021/04/11 04:22:36;;;;;;;20.52;13.68;;;10.60;92.10;;;;;;4887996;29;20107;-92
2021/04/11 04:25:47;;;;;;;20.17;13.38;;;10.60;92.10;;;;;;4903796;29;20040;-92
2021/04/11 04:28:23;;;;;;;18.08;13.68;;;10.60;92.10;;;;;;4884347;29;20044;-92
2021/04/11 04:31:02;;;;;;;20.58;14.43;;;10.50;92.40;;;;;;4904685;29;20123;-92
2021/04/11 04:33:57;;;;;;;19.80;12.90;;;10.50;92.40;;;;;;4888076;29;20360;-91
2021/04/11 04:36:37;;;;;;;16.50;13.75;;;10.50;92.50;;;;;;4890856;29;20068;-91
2021/04/11 04:39:05;;;;;;;18.17;13.35;;;10.50;92.40;;;;;;4888519;29;20440;-91
2021/04/11 04:42:06;;;;;;;17.65;13.60;;;10.50;92.30;;;;;;4889573;29;20080;-89
2021/04/11 04:44:38;;;;;;;19.50;14.00;;;10.40;92.40;;;;;;4889196;29;20348;-92
2021/04/11 04:47:19;;;;;;;18.85;14.88;;;10.40;92.50;;;;;;4888174;29;20045;-92
2021/04/11 04:49:52;;;;;;;21.48;15.13;;;10.40;92.50;;;;;;4889328;29;20087;-91
2021/04/11 04:52:24;;;;;;;20.95;14.88;;;10.40;92.50;;;;;;4887715;29;20048;-92
2021/04/11 04:55:10;;;;;;;21.67;14.48;;;10.40;92.50;;;;;;4888193;29;20039;-92
2021/04/11 04:57:42;;;;;;;18.50;13.57;;;10.40;92.40;;;;;;4887781;29;20040;-91
2021/04/11 05:00:21;;;;;;;19.33;14.20;;;10.40;92.40;;;;;;4887938;29;20123;-91
2021/04/11 05:02:52;;;;;;;18.08;12.93;;;10.40;92.40;;;;;;4888087;29;20068;-92
2021/04/11 05:05:19;;;;;;;19.55;13.00;;;10.50;92.30;;;;;;4902961;29;20123;-91
2021/04/11 05:08:00;;;;;;;22.17;14.05;;;10.50;92.30;;;;;;4887612;29;20052;-92
2021/04/11 05:11:14;;;;;;;18.70;14.27;;;10.50;92.30;;;;;;4887541;29;20040;-92
2021/04/11 05:13:43;;;;;;;;;;;10.50;92.30;;;;;;4847159;29;20139;-93
2021/04/11 05:16:28;;;;;;;19.42;14.20;;;10.50;92.30;;;;;;4887672;29;19922;-92
2021/04/11 05:19:04;;;;;;;16.42;12.20;;;10.50;92.30;;;;;;4887726;29;20110;-92
2021/04/11 05:21:35;;;;;;;22.70;13.82;;;10.50;92.30;;;;;;4887363;29;20046;-92
2021/04/11 05:24:05;;;;;;;17.70;13.48;;;10.50;92.20;;;;;;4887348;29;20100;-92
2021/04/11 05:26:36;;;;;;;20.40;13.70;;;10.50;92.20;;;;;;4903441;29;20039;-92
2021/04/11 05:29:07;;;;;;;20.75;13.50;;;10.50;92.20;;;;;;4903093;29;20131;-92
2021/04/11 05:31:35;;;;;;;15.32;12.68;;;10.50;92.20;;;;;;4903168;29;20104;-91
2021/04/11 05:34:03;;;;;;;21.25;13.18;;;10.60;92.20;;;;;;4887923;29;20082;-92
2021/04/11 05:36:50;;;;;;;15.73;12.57;;;10.60;92.10;;;;;;4891522;29;20123;-92
2021/04/11 05:39:41;;;;;;;18.98;14.70;;;10.60;92.10;;;;;;4908190;29;20041;-91
2021/04/11 05:42:33;;;;;;;18.02;13.13;;;10.60;92.00;;;;;;4907096;29;20045;-91
2021/04/11 05:45:14;;;;;;;19.00;13.15;;;10.60;92.00;;;;;;4890961;29;20040;-92
2021/04/11 05:48:23;;;;;;;19.80;13.48;;;10.60;92.00;;;;;;4906836;29;20068;-91
2021/04/11 05:50:59;;;;;;;17.67;12.57;;;10.60;92.00;;;;;;4906859;29;20072;-91
2021/04/11 05:53:41;;;;;;;17.25;12.90;;;10.60;91.80;;;;;;4890989;29;20044;-91
2021/04/11 05:56:29;;;;;;;18.93;12.67;;;10.60;91.80;;;;;;4891004;29;20068;-91
2021/04/11 05:59:01;;;;;;;14.43;12.18;;;10.60;91.80;;;;;;4890881;29;20260;-91
2021/04/11 06:01:33;;;;;;;17.10;12.43;;;10.60;91.80;;;;;;4890674;29;20041;-92
2021/04/11 06:04:07;;;;;;;18.05;12.90;;;10.60;91.90;;;;;;4891009;29;20415;-93
2021/04/11 06:06:45;;;;;;;21.02;13.05;;;10.70;92.00;;;;;;4891069;29;20052;-93
2021/04/11 06:09:35;;;;;;;21.42;13.13;;;10.70;92.00;;;;;;4891012;29;20052;-92
2021/04/11 06:12:33;;;;;;;18.67;13.52;;;10.70;92.00;;;;;;4906372;29;20119;-91
2021/04/11 06:15:08;;;;;;;17.15;13.48;;;10.70;91.90;;;;;;4890591;29;20051;-93
2021/04/11 06:17:35;;;;;;;20.52;14.88;;;10.70;92.00;;;;;;4890396;29;20075;-93
2021/04/11 06:20:05;;;;;;;19.13;13.38;;;10.70;91.90;;;;;;4890952;29;20410;-92
2021/04/11 06:22:50;;;;;;;17.70;13.48;;;10.70;91.90;;;;;;4890790;29;20048;-93
2021/04/11 06:25:36;;;;;;;18.65;13.07;;;10.80;91.90;;;;;;4905818;29;20096;-90
2021/04/11 06:28:12;;;;;;;20.40;14.35;;;10.80;91.90;;;;;;4890682;29;20068;-93
2021/04/11 06:30:50;;;;;;;19.80;13.65;;;10.80;91.80;;;;;;4890698;29;20048;-92
2021/04/11 06:33:25;;;;;;;16.92;13.27;;;10.80;91.80;;;;;;4893868;29;20089;-92
2021/04/11 06:36:04;;;;;;;17.48;12.85;;;10.80;91.80;;;;;;4890661;29;20033;-91
2021/04/11 06:38:50;;;;;;;18.27;12.63;;;10.90;91.80;;;;;;4890767;29;20040;-92
2021/04/11 06:41:24;;;;;;;20.95;13.40;;;10.90;91.80;;;;;;4890937;29;20044;-90
2021/04/11 06:43:53;;;;;;;16.98;12.32;;;10.90;91.80;;;;;;4890648;29;20036;-91
2021/04/11 06:46:41;;;;;;;17.88;12.23;;;11.00;91.90;;;;;;4904510;29;20040;-91
2021/04/11 06:49:19;;;;;;;16.48;11.90;;;11.10;91.90;;;;;;4890504;29;20036;-92
2021/04/11 06:52:04;;;;;;;18.38;12.93;;;11.30;91.60;;;;;;4906607;29;20131;-92
2021/04/11 06:54:52;;;;;;;18.52;11.27;;;11.40;91.40;;;;;;4891302;29;20036;-92
2021/04/11 06:57:20;;;;;;;15.55;11.95;;;11.60;91.20;;;;;;4890174;29;20395;-93
2021/04/11 07:00:01;;;;;;;15.57;11.38;;;11.70;90.80;;;;;;4905690;29;20135;-92
2021/04/11 07:03:04;;;;;;;16.55;11.98;;;11.90;90.50;;;;;;4905686;29;20075;-92
2021/04/11 07:06:04;;;;;;;14.45;11.52;;;12.00;90.30;;;;;;4905244;29;20075;-91
2021/04/11 07:08:49;;;;;;;14.93;11.25;;;12.10;90.20;;;;;;4905471;29;20071;-91
2021/04/11 07:11:29;;;;;;;14.25;11.02;;;12.20;90.20;;;;;;4905493;29;20105;-91
2021/04/11 07:14:11;;;;;;;18.40;12.07;;;12.30;90.10;;;;;;4906401;29;20082;-93
2021/04/11 07:17:05;;;;;;;16.05;11.38;;;12.30;90.40;;;;;;4889362;29;20041;-93
2021/04/11 07:20:05;;;;;;;15.68;11.27;;;12.40;90.00;;;;;;4905267;29;20040;-93
2021/04/11 07:22:58;;;;;;;17.48;11.77;;;12.50;89.50;;;;;;4889505;29;20036;-92
2021/04/11 07:25:34;;;;;;;14.30;9.88;;;12.60;89.80;;;;;;4890079;29;20123;-92
2021/04/11 07:28:20;;;;;;;13.45;9.55;;;12.70;89.50;;;;;;4889514;29;20040;-93
2021/04/11 07:31:08;;;;;;;11.23;9.23;;;12.80;89.20;;;;;;4904800;29;20047;-92
2021/04/11 07:34:00;;;;;;;13.38;8.93;;;12.90;88.90;;;;;;4905097;29;20095;-92
2021/04/11 07:36:36;;;;;;;11.35;9.00;;;13.10;86.80;;;;;;4889209;29;20100;-92
2021/04/11 07:39:13;;;;;;;10.02;7.88;;;13.30;86.70;;;;;;4904855;29;20076;-92
2021/04/11 07:42:06;;;;;;;11.43;7.38;;;13.40;86.50;;;;;;4904805;29;20047;-93
2021/04/11 07:44:41;;;;;;;;;;;13.60;85.40;;;;;;4889701;29;20033;-92
2021/04/11 07:47:31;;;;;;;8.75;6.28;;;13.80;85.20;;;;;;4888945;29;19998;-92
2021/04/11 07:50:25;;;;;;;7.93;5.88;;;14.00;84.10;;;;;;4889057;29;20131;-92
2021/04/11 07:53:28;;;;;;;9.57;6.35;;;14.20;82.20;;;;;;4904352;29;20048;-90
2021/04/11 07:56:02;;;;;;;7.90;5.60;;;14.40;81.40;;;;;;4904822;29;20036;-92
2021/04/11 07:58:59;;;;;;;6.72;5.32;;;14.50;80.40;;;;;;4904093;29;20391;-92
2021/04/11 08:01:54;;;;;;;9.13;5.53;;;14.70;79.80;;;;;;4888952;29;20032;-91
2021/04/11 08:04:35;;;;;;;9.48;5.30;;;14.80;78.20;;;;;;4888567;29;20366;-91
2021/04/11 08:07:35;;;;;;;10.65;5.65;;;14.90;77.60;;;;;;4903930;29;20044;-92
2021/04/11 08:10:24;;;;;;;9.63;6.13;;;15.10;79.30;;;;;;4904108;29;20040;-91
2021/04/11 08:13:09;;;;;;;10.43;5.55;;;15.20;77.90;;;;;;4888520;29;20045;-91
2021/04/11 08:15:56;;;;;;;6.97;5.45;;;15.40;78.90;;;;;;4904205;29;20040;-93
2021/04/11 08:19:05;;;;;;;8.13;4.93;;;15.50;78.10;;;;;;4888562;29;20040;-91
2021/04/11 08:21:49;;;;;;;7.57;5.13;;;15.70;75.30;;;;;;4888877;29;20135;-91
2021/04/11 08:24:46;;;;;;;5.90;4.63;;;15.80;76.20;;;;;;4888311;29;20044;-91
2021/04/11 08:27:45;;;;;;;10.00;5.28;;;15.90;75.50;;;;;;4903676;29;20099;-91
2021/04/11 08:30:35;;;;;;;7.43;6.18;;;16.00;74.40;;;;;;4903802;29;20059;-91
2021/04/11 08:33:11;;;;;;;6.80;4.75;;;16.20;75.00;;;;;;4903847;29;20451;-91
2021/04/11 08:35:55;;;;;;;7.10;5.25;;;16.30;73.70;;;;;;4888412;29;20180;-90
2021/04/11 08:38:57;;;;;;;6.50;5.10;;;16.50;73.50;;;;;;4904678;29;20039;-91
2021/04/11 08:42:01;;;;;;;7.05;5.20;;;16.60;75.00;;;;;;4888292;29;20040;-92
2021/04/11 08:45:04;;;;;;;8.15;4.65;;;16.70;73.30;;;;;;4903477;29;20040;-92
2021/04/11 08:47:30;;;;;;;;;;;16.80;75.10;;;;;;4904185;29;20040;-91
2021/04/11 08:50:00;;;;;;;8.48;4.60;;;17.00;74.80;;;;;;4903746;29;19911;-91
2021/04/11 08:52:45;;;;;;;5.97;4.63;;;17.10;72.80;;;;;;4887995;29;20407;-89
2021/04/11 08:55:31;;;;;;;5.30;4.28;;;17.20;71.80;;;;;;4888180;29;20044;-90
2021/04/11 08:58:32;;;;;;;12.48;5.28;;;17.30;72.80;;;;;;4903288;29;20047;-91
2021/04/11 09:01:09;;;;;;;7.03;5.03;;;17.50;73.30;;;;;;4887737;29;20047;-92
2021/04/11 09:03:46;;;;;;;7.22;4.30;;;17.60;72.90;;;;;;4888186;29;20045;-91
2021/04/11 09:06:28;;;;;;;12.25;4.85;;;17.70;72.10;;;;;;4887284;29;20395;-90
2021/04/11 09:09:16;;;;;;;5.75;4.55;;;17.90;71.70;;;;;;4888896;29;20044;-91
2021/04/11 09:12:18;;;;;;;6.25;4.53;;;18.10;70.60;;;;;;4903714;29;20051;-92
2021/04/11 09:15:04;;;;;;;7.50;4.75;;;18.20;69.00;;;;;;4886912;29;20135;-92
2021/04/11 09:17:50;;;;;;;7.18;5.03;;;18.30;69.50;;;;;;4902860;29;20348;-92
2021/04/11 09:20:38;;;;;;;6.45;4.07;;;18.50;70.20;;;;;;4903833;29;20543;-90
2021/04/11 09:23:33;;;;;;;5.82;4.03;;;18.60;66.90;;;;;;4887717;29;20055;-92
2021/04/11 09:26:24;;;;;;;8.05;5.20;;;18.80;66.60;;;;;;4903669;29;20071;-90
2021/04/11 09:29:07;;;;;;;6.90;4.10;;;19.00;66.60;;;;;;4902858;29;20370;-88
2021/04/11 09:31:54;;;;;;;8.07;4.30;;;19.10;65.80;;;;;;4903381;29;20135;-91
2021/04/11 09:35:02;;;;;;;7.60;4.35;;;19.20;64.60;;;;;;4902611;29;20048;-90
2021/04/11 09:37:59;;;;;;;6.35;3.63;;;19.40;65.20;;;;;;4902540;29;20051;-89
2021/04/11 09:40:51;;;;;;;6.00;3.70;;;19.50;64.90;;;;;;4902145;29;20047;-91
2021/04/11 09:43:32;;;;;;;6.85;3.70;;;19.70;62.40;;;;;;4887342;29;20072;-92
2021/04/11 09:46:09;;;;;;;5.05;3.42;;;19.80;63.10;;;;;;4887147;29;20071;-91
2021/04/11 09:48:57;;;;;;;5.45;3.65;;;19.80;62.40;;;;;;4903115;29;20052;-91
2021/04/11 09:52:00;;;;;;;5.90;4.00;;;19.90;62.40;;;;;;4903246;29;20036;-91
2021/04/11 09:54:40;;;;;;;6.97;4.40;;;19.90;62.00;;;;;;4901144;29;20049;-91
2021/04/11 09:57:28;;;;;;;6.97;4.35;;;20.00;62.90;;;;;;4887200;29;20571;-92
2021/04/11 10:00:07;;;;;;;5.95;4.03;;;20.00;62.90;;;;;;4887562;29;20048;-92
2021/04/11 10:02:52;;;;;;;8.98;4.15;;;19.90;63.00;;;;;;4903827;29;20358;-91
2021/04/11 10:05:20;;;;;;;4.70;3.70;;;19.90;64.10;;;;;;4902019;29;20055;-89
2021/04/11 10:08:08;;;;;;;5.53;3.63;;;19.90;63.10;;;;;;4902365;29;20423;-91
2021/04/11 10:10:47;;;;;;;7.47;4.47;;;20.00;62.30;;;;;;4902878;29;20052;-90
2021/04/11 10:13:26;;;;;;;6.60;3.65;;;20.00;59.50;;;;;;4902910;29;20633;-91
2021/04/11 10:16:21;;;;;;;8.55;4.47;;;20.10;63.20;;;;;;4902984;29;20413;-91
2021/04/11 10:18:58;;;;;;;5.72;3.13;;;20.20;63.20;;;;;;4902275;29;20361;-91
2021/04/11 10:21:29;;;;;;;4.63;3.63;;;20.30;64.40;;;;;;4905007;29;20064;-90
2021/04/11 10:24:19;;;;;;;6.03;3.40;;;20.40;61.80;;;;;;4906572;29;20063;-91
2021/04/11 10:26:59;;;;;;;5.00;3.35;;;20.50;61.30;;;;;;4889458;29;20044;-92
2021/04/11 10:29:27;;;;;;;7.38;3.20;;;20.60;57.80;;;;;;4889873;29;20047;-90
2021/04/11 10:31:58;;;;;;;4.25;3.65;;;20.50;57.80;;;;;;4889606;29;20123;-91
2021/04/11 10:34:48;;;;;;;4.10;2.70;;;20.70;62.50;;;;;;4905011;29;20088;-91
2021/04/11 10:37:39;;;;;;;3.30;2.88;;;20.80;57.20;;;;;;4904328;29;20046;-89
2021/04/11 10:40:33;;;;;;;4.65;3.35;;;20.90;57.30;;;;;;4889369;29;20068;-91
2021/04/11 10:43:02;;;;;;;4.60;2.80;;;20.90;56.10;;;;;;4889219;29;20466;-90
2021/04/11 10:45:40;;;;;;;5.43;3.30;;;21.10;57.80;;;;;;4904115;29;20135;-89
2021/04/11 10:48:32;;;;;;;5.32;3.58;;;21.20;56.10;;;;;;4904318;29;20056;-91
2021/04/11 10:51:43;;;;;;;4.32;2.75;;;21.30;55.60;;;;;;4889183;29;20051;-92
2021/04/11 10:54:42;;;;;;;5.15;2.97;;;21.40;55.30;;;;;;4905852;29;20333;-91
2021/04/11 10:57:29;;;;;;;6.82;2.90;;;21.50;59.10;;;;;;4905216;29;20045;-90
2021/04/11 10:59:54;;;;;;;4.63;2.67;;;21.50;55.70;;;;;;4904868;29;20047;-91
2021/04/11 11:02:43;;;;;;;4.30;2.75;;;21.50;58.40;;;;;;4904601;29;20044;-90
2021/04/11 11:05:36;;;;;;;2.53;2.28;;;21.60;55.00;;;;;;4904376;29;20072;-90
2021/04/11 11:08:18;;;;;;;5.18;3.17;;;21.70;57.30;;;;;;4888553;29;20131;-91
2021/04/11 11:11:40;;;;;;;6.40;2.78;;;21.70;55.10;;;;;;4904811;29;20048;-90
2021/04/11 11:14:29;;;;;;;3.40;2.83;;;21.80;55.00;;;;;;4814241;29;20055;-90
2021/04/11 11:17:25;;;;;;;4.32;2.50;;;21.80;56.20;;;;;;4814534;29;20448;-91
2021/04/11 11:20:15;;;;;;;3.53;2.53;;;21.90;55.20;;;;;;4885051;29;20084;-90
2021/04/11 11:23:05;;;;;;;5.18;2.60;;;21.90;54.00;;;;;;4888676;29;20396;-89
2021/04/11 11:26:03;;;;;;;4.47;2.60;;;21.90;55.10;;;;;;4904956;29;20311;-92
2021/04/11 11:28:56;;;;;;;3.45;2.35;;;22.00;56.80;;;;;;4888668;29;20037;-90
2021/04/11 11:31:51;;;;;;;4.57;2.15;;;22.10;55.40;;;;;;4888176;29;20040;-91
2021/04/11 11:34:39;;;;;;;3.47;2.38;;;22.20;55.00;;;;;;4888744;29;20044;-90
2021/04/11 11:37:25;;;;;;;4.43;2.22;;;22.30;54.80;;;;;;4894747;29;20040;-91
2021/04/11 11:39:59;;;;;;;5.53;2.50;;;22.50;53.50;;;;;;4888409;29;20047;-91
2021/04/11 11:42:34;;;;;;;5.80;2.33;;;22.50;53.70;;;;;;4904096;29;20044;-90
2021/04/11 11:45:05;;;;;;;3.88;2.38;;;22.60;54.90;;;;;;4904901;29;20040;-89
2021/04/11 11:47:52;;;;;;;4.38;2.38;;;22.70;53.30;;;;;;4904201;29;20047;-90
2021/04/11 11:50:27;;;;;;;5.38;2.90;;;22.70;52.80;;;;;;4904212;29;20044;-91
2021/04/11 11:53:11;;;;;;;3.47;2.00;;;22.80;55.00;;;;;;4888421;29;20066;-89
2021/04/11 11:55:43;;;;;;;3.22;2.10;;;23.00;53.70;;;;;;4902483;29;20036;-88
2021/04/11 11:58:20;;;;;;;;;;;23.00;53.00;;;;;;4905499;29;20043;-92
2021/04/11 12:00:55;;;;;;;2.80;1.90;;;23.10;52.70;;;;;;4898407;29;19925;-91
2021/04/11 12:03:31;;;;;;;7.88;2.10;;;23.10;51.90;;;;;;4902960;29;20048;-91
2021/04/11 12:06:03;;;;;;;4.50;2.35;;;23.10;53.90;;;;;;4886327;29;20052;-89
2021/04/11 12:09:05;;;;;;;5.43;1.92;;;23.20;50.90;;;;;;4886263;29;20076;-90
2021/04/11 12:11:41;;;;;;;3.28;2.30;;;23.30;52.80;;;;;;4902260;29;20044;-89
2021/04/11 12:14:29;;;;;;;3.83;1.70;;;23.40;53.60;;;;;;4912017;29;20060;-90
2021/04/11 12:17:09;;;;;;;4.55;1.90;;;23.50;51.20;;;;;;4898549;29;20128;-89
2021/04/11 12:19:48;;;;;;;2.25;1.40;;;23.40;50.10;;;;;;4898764;29;20036;-89
2021/04/11 12:22:20;;;;;;;3.55;1.70;;;23.50;51.10;;;;;;4901233;29;20124;-91
2021/04/11 12:24:57;;;;;;;4.72;1.40;;;23.50;49.60;;;;;;4872146;29;20435;-89
2021/04/11 12:27:33;;;;;;;3.92;1.48;;;23.50;50.50;;;;;;4900423;29;20127;-90
2021/04/11 12:30:01;;;;;;;3.17;1.63;;;23.60;52.30;;;;;;4900295;29;20044;-90
2021/04/11 12:32:40;;;;;;;3.60;1.63;;;23.50;50.40;;;;;;4901912;29;20123;-89
2021/04/11 12:35:13;;;;;;;2.75;1.55;;;23.60;51.20;;;;;;4899981;29;20040;-90
2021/04/11 12:37:55;;;;;;;2.45;1.60;;;23.70;52.30;;;;;;4900981;29;20434;-90
2021/04/11 12:40:50;;;;;;;3.17;1.85;;;23.80;50.80;;;;;;4901586;29;20040;-90
2021/04/11 12:43:51;;;;;;;6.43;2.20;;;24.00;49.80;;;;;;4873630;29;20107;-88
2021/04/11 12:46:28;;;;;;;2.33;1.60;;;23.90;48.00;;;;;;4874854;29;20045;-91
2021/04/11 12:49:15;;;;;;;3.28;1.92;;;23.80;51.00;;;;;;4897425;29;20037;-90
2021/04/11 12:52:01;;;;;;;2.95;1.50;;;23.70;49.80;;;;;;4902627;29;20080;-90
2021/04/11 12:54:52;;;;;;;2.92;1.70;;;23.50;50.80;;;;;;4902384;29;20044;-91
2021/04/11 12:57:26;;;;;;;1.85;1.40;;;23.30;51.80;;;;;;4902930;29;20047;-92
2021/04/11 12:59:57;;;;;;;5.15;2.25;;;23.20;51.10;;;;;;4886914;29;20067;-89
2021/04/11 13:02:38;;;;;;;4.63;1.73;;;23.10;51.60;;;;;;4901622;29;20108;-90
2021/04/11 13:05:14;;;;;;;3.20;1.70;;;22.90;50.60;;;;;;4902558;29;20044;-89
2021/04/11 13:07:46;;;;;;;3.63;2.33;;;22.90;51.90;;;;;;4886476;29;20048;-89
2021/04/11 13:10:33;;;;;;;5.82;1.73;;;23.10;51.80;;;;;;4885708;29;20040;-89
2021/04/11 13:13:17;;;;;;;3.08;1.48;;;23.30;51.70;;;;;;4886076;29;20101;-91
2021/04/11 13:16:04;;;;;;;3.50;1.63;;;23.30;51.70;;;;;;4886140;29;20395;-90
2021/04/11 13:18:44;;;;;;;2.83;1.20;;;23.50;53.10;;;;;;4902959;29;20320;-91
2021/04/11 13:21:27;;;;;;;4.15;1.40;;;23.70;52.00;;;;;;4885911;29;20032;-90
2021/04/11 13:24:03;;;;;;;2.40;1.40;;;23.80;49.10;;;;;;4886551;29;20064;-91
2021/04/11 13:26:41;;;;;;;3.03;1.40;;;23.90;48.90;;;;;;4886811;29;20075;-91
2021/04/11 13:29:26;;;;;;;2.85;1.73;;;23.90;49.40;;;;;;4886961;29;20429;-93
2021/04/11 13:32:04;;;;;;;2.38;1.00;;;23.80;49.50;;;;;;4912792;29;20071;-91
2021/04/11 13:34:55;;;;;;;2.22;1.35;;;23.60;49.50;;;;;;4884105;29;20041;-92
2021/04/11 13:37:21;;;;;;;3.08;1.33;;;23.50;47.90;;;;;;4883847;29;20041;-91